Time;durP1;ratioP1;P1;durP2;ratioP2;P2;SDS_P1;SDS_P2;PMS_P1;PMS_P2;Temp;Humidity;BMP_temperature;BMP_pressure;BME280_temperature;BME280_humidity;BME280_pressure;Samples;Min_cycle;Max_cycle;Signal;HPM_P1;HPM_P2
2022/12/01 00:01:04;;;;;;;25.83;14.40;;;;;;;20.91;40.30;102855.84;5027541;28;20033;-61
2022/12/01 00:03:30;;;;;;;25.65;13.82;;;;;;;20.93;40.17;102857.38;5023845;28;20040;-62
2022/12/01 00:06:01;;;;;;;23.52;12.68;;;;;;;20.91;40.34;102853.19;5026360;28;20049;-61
2022/12/01 00:08:28;;;;;;;25.60;12.98;;;;;;;20.83;40.59;102853.91;5025708;28;20052;-61
2022/12/01 00:10:55;;;;;;;27.10;12.85;;;;;;;20.84;40.57;102841.50;5025973;28;20033;-61
2022/12/01 00:13:20;;;;;;;25.80;13.10;;;;;;;20.91;40.30;102851.38;5024591;28;20087;-61
2022/12/01 00:15:46;;;;;;;21.70;11.48;;;;;;;20.87;40.35;102850.00;5029298;28;20033;-61
2022/12/01 00:18:12;;;;;;;25.13;13.07;;;;;;;20.89;40.25;102847.19;5026115;28;20483;-61
2022/12/01 00:20:39;;;;;;;26.40;13.05;;;;;;;20.90;40.18;102855.00;5025396;28;20847;-61
2022/12/01 00:23:04;;;;;;;24.55;13.27;;;;;;;20.91;40.29;102853.19;5035832;28;20390;-61
2022/12/01 00:25:30;;;;;;;23.40;11.82;;;;;;;20.91;40.03;102851.38;5034695;28;20042;-61
2022/12/01 00:27:56;;;;;;;24.67;12.63;;;;;;;20.86;40.20;102850.97;5025774;28;20079;-61
2022/12/01 00:30:21;;;;;;;27.23;14.80;;;;;;;20.85;40.45;102853.75;5026730;28;20036;-61
2022/12/01 00:32:48;;;;;;;25.65;14.85;;;;;;;20.85;40.22;102854.59;5027576;28;20037;-61
2022/12/01 00:35:14;;;;;;;25.33;14.23;;;;;;;20.86;40.35;102852.78;5031525;28;20043;-61
2022/12/01 00:37:40;;;;;;;26.42;14.15;;;;;;;20.83;40.36;102851.25;5026676;28;20560;-61
2022/12/01 00:40:07;;;;;;;24.42;14.23;;;;;;;20.76;40.38;102856.22;5028251;28;20427;-61
2022/12/01 00:42:33;;;;;;;28.20;13.85;;;;;;;20.75;40.29;102859.84;5022477;28;20168;-61
2022/12/01 00:44:58;;;;;;;26.50;13.70;;;;;;;20.71;40.41;102847.88;5025625;28;20041;-61
2022/12/01 00:47:24;;;;;;;28.55;14.23;;;;;;;20.69;40.42;102843.69;5027519;28;20029;-62
2022/12/01 00:49:51;;;;;;;24.20;13.82;;;;;;;20.75;40.65;102857.22;5023567;28;20053;-61
2022/12/01 00:52:18;;;;;;;25.67;13.90;;;;;;;20.78;40.38;102861.38;5032457;28;20621;-61
2022/12/01 00:54:44;;;;;;;22.33;13.02;;;;;;;20.78;40.30;102858.75;5032004;28;20468;-61
2022/12/01 00:57:10;;;;;;;24.27;14.00;;;;;;;20.76;40.47;102858.03;5024166;28;20048;-61
2022/12/01 00:59:35;;;;;;;24.55;13.23;;;;;;;20.74;40.33;102860.00;5023397;28;20038;-62
2022/12/01 01:02:05;;;;;;;24.98;13.10;;;;;;;20.68;40.68;102863.19;5027899;28;20475;-61
2022/12/01 01:04:33;;;;;;;24.65;12.75;;;;;;;20.72;40.51;102865.44;5027857;28;20160;-62
2022/12/01 01:06:58;;;;;;;21.63;12.52;;;;;;;20.69;40.42;102856.94;5025764;28;20140;-61
2022/12/01 01:09:24;;;;;;;25.05;13.35;;;;;;;20.76;40.41;102865.97;5027354;28;20396;-61
2022/12/01 01:11:51;;;;;;;25.00;13.25;;;;;;;20.75;40.44;102861.66;5025720;28;20059;-61
2022/12/01 01:14:16;;;;;;;25.17;12.25;;;;;;;20.68;40.35;102860.56;5024713;28;20120;-61
2022/12/01 01:16:42;;;;;;;24.42;13.00;;;;;;;20.68;40.41;102866.69;5030125;28;20134;-61
2022/12/01 01:19:07;;;;;;;21.92;12.57;;;;;;;20.70;40.29;102862.09;5025690;28;20045;-61
2022/12/01 01:21:33;;;;;;;24.52;13.55;;;;;;;20.70;40.41;102856.78;5027255;28;20124;-61
2022/12/01 01:23:59;;;;;;;24.50;13.63;;;;;;;20.69;40.46;102857.75;5031611;28;20045;-61
2022/12/01 01:26:28;;;;;;;24.83;14.23;;;;;;;20.68;40.40;102868.50;5026520;28;20049;-61
2022/12/01 01:28:57;;;;;;;23.08;13.48;;;;;;;20.61;40.53;102865.53;5024641;28;20044;-61
2022/12/01 01:31:25;;;;;;;23.90;13.65;;;;;;;20.68;40.26;102866.69;5026005;28;20829;-61
2022/12/01 01:33:51;;;;;;;23.45;13.43;;;;;;;20.61;40.56;102877.94;5026209;28;20053;-61
2022/12/01 01:36:17;;;;;;;27.50;13.65;;;;;;;20.59;40.46;102867.47;5028517;28;20797;-61
2022/12/01 01:38:44;;;;;;;24.55;12.80;;;;;;;20.65;40.54;102877.53;5025069;28;20045;-61
2022/12/01 01:41:09;;;;;;;26.48;13.40;;;;;;;20.62;40.59;102879.59;5024414;28;20090;-62
2022/12/01 01:44:09;;;;;;;22.98;12.52;;;;;;;20.66;40.52;102879.22;5023740;28;20033;-61
2022/12/01 01:46:35;;;;;;;24.05;13.43;;;;;;;20.57;40.17;102880.03;5028752;28;20507;-61
2022/12/01 01:49:07;;;;;;;24.23;13.50;;;;;;;20.57;40.54;102887.13;5025176;28;20037;-61
2022/12/01 01:51:39;;;;;;;25.50;15.32;;;;;;;20.64;40.48;102886.44;5027905;28;20045;-61
2022/12/01 01:54:15;;;;;;;25.40;14.10;;;;;;;20.51;40.75;102892.00;5031153;28;20465;-61
2022/12/01 01:56:42;;;;;;;26.08;13.30;;;;;;;20.49;40.68;102887.81;5027901;28;20088;-61
2022/12/01 01:59:12;;;;;;;22.88;12.93;;;;;;;20.59;40.53;102887.81;5022981;28;20041;-61
2022/12/01 02:01:37;;;;;;;28.20;14.73;;;;;;;20.55;40.48;102887.25;5023131;28;20068;-61
2022/12/01 02:04:03;;;;;;;24.73;14.20;;;;;;;20.60;40.52;102892.97;5025300;28;20099;-61
2022/12/01 02:06:28;;;;;;;26.20;14.15;;;;;;;20.51;40.64;102897.28;5025288;28;20120;-61
2022/12/01 02:08:54;;;;;;;23.58;12.82;;;;;;;20.50;40.69;102886.84;5025931;28;20037;-61
2022/12/01 02:12:02;;;;;;;22.48;13.73;;;;;;;20.60;40.30;102892.13;5028485;28;20039;-61
2022/12/01 02:14:36;;;;;;;24.67;13.77;;;;;;;20.57;40.37;102887.97;5030258;28;20467;-61
2022/12/01 02:17:13;;;;;;;24.90;14.30;;;;;;;20.58;40.64;102881.69;5033225;28;20123;-61
2022/12/01 02:20:00;;;;;;;26.65;14.20;;;;;;;20.53;40.67;102886.56;5028562;28;20095;-61
2022/12/01 02:22:47;;;;;;;25.13;13.70;;;;;;;20.54;40.46;102879.47;5029047;28;20041;-61
2022/12/01 02:25:39;;;;;;;26.33;14.52;;;;;;;20.51;40.60;102878.75;5036788;28;20041;-61
2022/12/01 02:28:34;;;;;;;24.30;13.85;;;;;;;20.57;40.60;102874.72;5031861;28;20049;-61
2022/12/01 02:31:05;;;;;;;26.67;14.50;;;;;;;20.48;40.80;102884.31;5015537;28;20049;-61
2022/12/01 02:33:50;;;;;;;25.70;14.75;;;;;;;20.54;40.40;102871.50;5019790;28;20541;-61
2022/12/01 02:36:44;;;;;;;27.80;14.23;;;;;;;20.50;40.44;102873.59;5031267;28;20204;-61
2022/12/01 02:39:28;;;;;;;24.88;12.93;;;;;;;20.54;40.56;102877.66;5027561;28;20216;-61
2022/12/01 02:42:47;;;;;;;25.50;13.63;;;;;;;20.52;40.42;102871.66;5026739;28;20087;-61
2022/12/01 02:44:57;;;;;;;26.35;14.50;;;;;;;20.48;40.53;102871.09;5031434;28;20037;-61
2022/12/01 02:47:22;;;;;;;28.67;13.35;;;;;;;20.48;40.56;102876.38;5029693;28;20395;-61
2022/12/01 02:49:50;;;;;;;25.58;13.65;;;;;;;20.47;40.57;102882.66;5028269;28;20056;-61
2022/12/01 02:52:17;;;;;;;24.55;12.75;;;;;;;20.49;40.41;102885.16;5023821;28;20076;-61
2022/12/01 02:54:47;;;;;;;25.88;13.18;;;;;;;20.50;40.55;102887.66;5032825;28;20045;-61
2022/12/01 02:57:14;;;;;;;27.42;14.45;;;;;;;20.42;40.76;102887.47;5034148;28;20037;-61
2022/12/01 02:59:48;;;;;;;26.45;14.25;;;;;;;20.41;40.68;102874.38;5024988;28;20506;-61
2022/12/01 03:02:41;;;;;;;27.15;14.10;;;;;;;20.47;40.51;102881.81;5027847;28;20483;-61
2022/12/01 03:05:37;;;;;;;28.10;15.07;;;;;;;20.47;40.59;102872.06;5030513;28;20120;-62
2022/12/01 03:08:52;;;;;;;31.15;15.35;;;;;;;20.36;40.85;102869.47;5024048;28;20160;-61
2022/12/01 03:11:30;;;;;;;25.20;14.50;;;;;;;20.38;40.62;102875.47;5020417;28;20824;-61
2022/12/01 03:14:28;;;;;;;25.77;14.75;;;;;;;20.36;41.00;102871.28;5031356;28;20065;-61
2022/12/01 03:16:59;;;;;;;26.88;15.07;;;;;;;20.43;40.61;102880.38;5031635;28;20488;-61
2022/12/01 03:19:31;;;;;;;26.75;14.48;;;;;;;20.44;40.50;102879.41;5027965;28;20128;-61
2022/12/01 03:22:04;;;;;;;26.75;13.95;;;;;;;20.34;40.87;102879.38;5025662;28;20048;-61
2022/12/01 03:24:32;;;;;;;28.90;14.63;;;;;;;20.44;40.54;102874.97;5031104;28;20037;-61
2022/12/01 03:27:00;;;;;;;27.60;14.30;;;;;;;20.37;40.79;102876.44;5032469;28;20649;-61
2022/12/01 03:29:31;;;;;;;24.65;13.48;;;;;;;20.37;41.01;102867.66;5030767;28;20071;-61
2022/12/01 03:32:04;;;;;;;26.83;14.95;;;;;;;20.43;40.67;102864.50;5029035;28;20042;-61
2022/12/01 03:34:39;;;;;;;26.63;13.57;;;;;;;20.36;40.87;102866.84;5029712;28;20040;-61
2022/12/01 03:37:36;;;;;;;25.23;13.25;;;;;;;20.35;40.63;102872.25;5023600;28;20030;-61
2022/12/01 03:40:08;;;;;;;26.17;14.30;;;;;;;20.41;40.62;102864.66;5029688;28;20051;-61
2022/12/01 03:42:53;;;;;;;25.85;14.45;;;;;;;20.39;40.83;102869.19;5026640;28;20474;-61
2022/12/01 03:45:30;;;;;;;26.55;15.13;;;;;;;20.38;40.66;102862.25;5024770;28;20081;-61
2022/12/01 03:47:56;;;;;;;27.35;15.15;;;;;;;20.19;41.00;102851.59;5027218;28;20037;-61
2022/12/01 03:50:28;;;;;;;29.88;16.13;;;;;;;20.33;40.76;102858.34;5027487;28;20029;-61
2022/12/01 03:53:26;;;;;;;25.85;14.57;;;;;;;20.37;40.58;102854.44;5024393;28;20029;-61
2022/12/01 03:55:57;;;;;;;29.80;14.68;;;;;;;20.39;40.54;102852.50;5034011;28;20049;-61
2022/12/01 03:58:32;;;;;;;30.90;14.75;;;;;;;20.33;40.90;102858.34;5034485;28;20148;-61
2022/12/01 04:01:00;;;;;;;25.77;13.45;;;;;;;20.25;40.89;102864.28;5027781;28;20037;-61
2022/12/01 04:03:26;;;;;;;28.08;14.23;;;;;;;20.26;40.99;102860.66;5027798;28;20037;-61
2022/12/01 04:05:52;;;;;;;28.00;14.48;;;;;;;20.33;40.67;102863.63;5029088;28;20049;-61
2022/12/01 04:08:18;;;;;;;26.05;14.20;;;;;;;20.36;40.75;102853.59;5027447;28;20750;-61
2022/12/01 04:10:43;;;;;;;27.50;13.80;;;;;;;20.25;40.90;102861.63;5031568;28;20633;-61
2022/12/01 04:13:21;;;;;;;26.33;14.98;;;;;;;20.26;40.96;102860.66;5024014;28;20044;-61
2022/12/01 04:15:50;;;;;;;25.40;13.35;;;;;;;20.28;41.03;102871.09;5027094;28;20033;-61
2022/12/01 04:18:15;;;;;;;26.58;14.07;;;;;;;20.31;40.83;102865.56;5028947;28;21391;-61
2022/12/01 04:20:42;;;;;;;31.17;15.95;;;;;;;20.19;40.90;102857.72;5025200;28;20056;-61
2022/12/01 04:23:08;;;;;;;29.50;14.80;;;;;;;20.26;40.92;102873.03;5023067;28;20038;-61
2022/12/01 04:25:34;;;;;;;30.13;16.65;;;;;;;20.29;40.78;102878.06;5032358;28;20041;-61
2022/12/01 04:28:00;;;;;;;30.40;14.90;;;;;;;20.29;40.67;102875.41;5034634;28;20060;-61
2022/12/01 04:30:25;;;;;;;27.25;14.43;;;;;;;20.27;40.90;102880.84;5025398;28;20037;-61
2022/12/01 04:32:51;;;;;;;28.45;13.43;;;;;;;20.30;40.84;102887.72;5024912;28;20136;-62
2022/12/01 04:35:16;;;;;;;26.55;14.95;;;;;;;20.27;40.75;102875.56;5026556;28;20045;-61
2022/12/01 04:37:41;;;;;;;26.42;13.77;;;;;;;20.21;40.89;102879.56;5024793;28;20032;-61
2022/12/01 04:40:07;;;;;;;30.40;15.32;;;;;;;20.23;40.74;102877.63;5025109;28;20041;-61
2022/12/01 04:42:33;;;;;;;28.45;15.23;;;;;;;20.25;40.77;102890.72;5027032;28;20041;-61
2022/12/01 04:44:58;;;;;;;27.80;14.95;;;;;;;20.22;40.97;102888.34;5025490;28;20045;-61
2022/12/01 04:47:24;;;;;;;25.23;13.55;;;;;;;20.23;40.95;102882.09;5024704;28;21037;-61
2022/12/01 04:49:49;;;;;;;28.55;14.63;;;;;;;20.17;41.10;102885.28;5030668;28;20041;-61
2022/12/01 04:52:15;;;;;;;24.88;15.05;;;;;;;20.15;40.96;102877.47;5032560;28;20053;-61
2022/12/01 04:54:41;;;;;;;26.75;14.90;;;;;;;20.21;41.01;102884.88;5029043;28;20068;-61
2022/12/01 04:57:06;;;;;;;27.38;15.35;;;;;;;20.23;40.90;102880.28;5044606;28;20048;-61
2022/12/01 04:59:32;;;;;;;29.58;15.70;;;;;;;20.20;40.80;102875.25;5032292;28;20408;-61
2022/12/01 05:01:57;;;;;;;28.15;16.92;;;;;;;20.20;40.83;102875.25;5035357;28;20106;-61
2022/12/01 05:04:23;;;;;;;26.50;15.82;;;;;;;20.20;40.98;102877.06;5027062;28;20082;-61
2022/12/01 05:06:48;;;;;;;27.65;14.48;;;;;;;20.19;40.97;102872.75;5028959;28;20056;-61
2022/12/01 05:09:15;;;;;;;25.98;13.80;;;;;;;20.28;40.63;102879.88;5031007;28;20033;-61
2022/12/01 05:11:42;;;;;;;27.48;14.15;;;;;;;20.25;40.75;102874.84;5030980;28;20029;-61
2022/12/01 05:14:08;;;;;;;26.80;14.60;;;;;;;20.26;40.95;102878.34;5026634;28;20037;-61
2022/12/01 05:16:33;;;;;;;28.92;14.18;;;;;;;20.17;41.02;102874.69;5031749;28;20514;-61
2022/12/01 05:21:47;;;;;;;26.40;14.73;;;;;;;20.18;40.92;102871.06;5027204;28;20571;-61
2022/12/01 05:24:14;;;;;;;29.40;16.20;;;;;;;20.24;40.79;102883.75;5029592;28;20033;-61
2022/12/01 05:26:41;;;;;;;29.85;14.88;;;;;;;20.04;41.25;102882.00;5035015;28;20503;-61
2022/12/01 05:29:07;;;;;;;25.25;13.80;;;;;;;20.08;41.07;102881.59;5021378;28;20029;-61
2022/12/01 05:31:33;;;;;;;29.02;14.48;;;;;;;20.07;41.15;102877.28;5022878;28;20098;-61
2022/12/01 05:33:59;;;;;;;26.33;15.30;;;;;;;20.10;40.80;102878.81;5027438;28;20037;-61
2022/12/01 05:36:24;;;;;;;26.40;14.02;;;;;;;20.13;41.12;102886.50;5027253;28;20033;-61
2022/12/01 05:38:50;;;;;;;26.63;14.80;;;;;;;20.17;40.82;102885.28;5023634;28;20029;-61
2022/12/01 05:41:15;;;;;;;29.25;15.50;;;;;;;20.15;40.81;102879.28;5022988;28;20033;-61
2022/12/01 05:43:41;;;;;;;30.05;16.13;;;;;;;20.14;41.04;102881.09;5028693;28;20580;-61
2022/12/01 05:46:06;;;;;;;27.80;15.43;;;;;;;20.16;40.87;102880.94;5026666;28;20034;-61
2022/12/01 05:48:32;;;;;;;28.15;15.48;;;;;;;20.07;40.96;102879.09;5027119;28;20084;-61
2022/12/01 05:50:58;;;;;;;28.30;14.50;;;;;;;20.11;40.95;102883.16;5027933;28;20053;-61
2022/12/01 05:53:23;;;;;;;28.63;14.93;;;;;;;20.02;41.13;102884.78;5019653;28;20043;-61
2022/12/01 05:55:53;;;;;;;28.25;14.35;;;;;;;20.08;40.69;102864.91;5034985;28;20546;-61
2022/12/01 05:58:20;;;;;;;30.35;16.50;;;;;;;20.09;41.04;102879.78;5032816;28;20119;-61
2022/12/01 06:00:46;;;;;;;32.40;15.98;;;;;;;20.13;41.03;102879.41;5031197;28;20068;-61
2022/12/01 06:03:12;;;;;;;29.73;17.02;;;;;;;20.12;41.07;102879.56;5027034;28;20107;-61
2022/12/01 06:05:37;;;;;;;28.27;13.93;;;;;;;20.05;41.02;102863.34;5024452;28;20128;-61
2022/12/01 06:08:03;;;;;;;29.75;15.82;;;;;;;20.12;40.99;102877.75;5032491;28;20047;-61
2022/12/01 06:10:28;;;;;;;27.70;14.07;;;;;;;20.20;41.02;102883.19;5026345;28;20088;-61
2022/12/01 06:12:54;;;;;;;25.83;14.27;;;;;;;20.10;41.24;102877.00;5029957;28;20044;-61
2022/12/01 06:15:19;;;;;;;24.95;13.18;;;;;;;20.17;41.10;102879.97;5032548;28;20032;-61
2022/12/01 06:17:45;;;;;;;25.50;13.95;;;;;;;20.12;41.23;102880.38;5029538;28;20107;-61
2022/12/01 06:20:11;;;;;;;24.92;14.18;;;;;;;20.11;41.13;102875.22;5029386;28;20045;-61
2022/12/01 06:22:37;;;;;;;26.90;14.20;;;;;;;20.17;41.28;102879.97;5030608;28;20044;-61
2022/12/01 06:25:03;;;;;;;28.02;13.88;;;;;;;20.09;41.34;102879.78;5030205;28;20033;-61
2022/12/01 06:27:28;;;;;;;25.38;13.60;;;;;;;20.17;41.16;102880.81;5034289;28;20120;-61
2022/12/01 06:29:54;;;;;;;25.95;14.18;;;;;;;20.17;41.16;102878.19;5034665;28;20044;-61
2022/12/01 06:32:19;;;;;;;22.75;13.85;;;;;;;20.11;41.29;102885.81;5026181;28;20454;-61
2022/12/01 06:34:45;;;;;;;23.42;14.20;;;;;;;20.17;41.46;102880.81;5026588;28;20042;-61
2022/12/01 06:37:11;;;;;;;25.27;14.30;;;;;;;20.13;41.31;102889.16;5031213;28;20041;-61
2022/12/01 06:39:36;;;;;;;24.88;14.00;;;;;;;20.13;41.30;102883.88;5030411;28;20045;-61
2022/12/01 06:42:02;;;;;;;27.08;14.88;;;;;;;20.12;41.37;102888.31;5030023;28;20494;-61
2022/12/01 06:44:28;;;;;;;26.63;14.05;;;;;;;20.15;41.29;102885.41;5025361;28;20048;-61
2022/12/01 06:46:55;;;;;;;26.30;13.20;;;;;;;20.24;41.08;102883.75;5028676;28;20050;-61
2022/12/01 06:49:21;;;;;;;23.58;13.07;;;;;;;20.20;41.21;102885.84;5030598;28;20063;-61
2022/12/01 06:51:46;;;;;;;26.05;13.20;;;;;;;20.20;41.41;102885.84;5032729;28;20777;-61
2022/12/01 06:54:13;;;;;;;24.23;12.68;;;;;;;20.17;41.47;102894.06;5028574;28;20137;-61
2022/12/01 06:56:39;;;;;;;25.73;12.93;;;;;;;20.22;41.18;102889.19;5033289;28;20242;-61
2022/12/01 06:59:04;;;;;;;25.35;13.75;;;;;;;20.17;41.38;102891.41;5035421;28;20037;-61
2022/12/01 07:01:30;;;;;;;22.98;12.43;;;;;;;20.17;41.50;102901.97;5026429;28;20037;-61
2022/12/01 07:03:55;;;;;;;23.73;13.75;;;;;;;20.25;41.31;102900.47;5028338;28;20082;-61
2022/12/01 07:06:21;;;;;;;22.58;13.05;;;;;;;20.19;41.44;102901.84;5029009;28;20047;-61
2022/12/01 07:08:47;;;;;;;24.35;12.88;;;;;;;20.24;41.35;102904.94;5027657;28;20075;-61
2022/12/01 07:11:14;;;;;;;22.70;11.88;;;;;;;20.29;41.18;102901.88;5028113;28;20049;-61
2022/12/01 07:13:41;;;;;;;26.77;13.32;;;;;;;20.23;41.33;102908.53;5026180;28;20037;-61
2022/12/01 07:16:08;;;;;;;26.02;14.13;;;;;;;20.18;41.19;102903.66;5022452;28;20056;-61
2022/12/01 07:18:35;;;;;;;24.55;13.13;;;;;;;20.18;41.33;102905.47;5029570;28;20056;-61
2022/12/01 07:21:07;;;;;;;23.55;13.68;;;;;;;20.15;41.45;102897.78;5023992;28;20631;-61
2022/12/01 07:23:33;;;;;;;23.40;13.60;;;;;;;20.20;41.31;102914.94;5035777;28;20863;-61
2022/12/01 07:25:59;;;;;;;24.35;13.07;;;;;;;20.24;40.96;102923.44;5029245;28;20052;-61
2022/12/01 07:28:25;;;;;;;23.75;12.95;;;;;;;20.28;41.25;102926.66;5035538;28;20032;-61
2022/12/01 07:30:51;;;;;;;26.45;13.32;;;;;;;20.22;41.34;102920.94;5034849;28;20057;-61
2022/12/01 07:33:16;;;;;;;24.52;13.25;;;;;;;20.25;41.36;102922.47;5030438;28;20037;-61
2022/12/01 07:35:42;;;;;;;26.25;13.38;;;;;;;20.29;41.27;102926.56;5027463;28;20049;-61
2022/12/01 07:38:07;;;;;;;24.92;12.57;;;;;;;20.26;41.24;102918.84;5024917;28;20040;-61
2022/12/01 07:40:33;;;;;;;22.95;12.65;;;;;;;20.29;41.29;102928.34;5026341;28;20045;-61
2022/12/01 07:42:58;;;;;;;22.95;13.20;;;;;;;20.29;41.20;102934.50;5024812;28;20029;-61
2022/12/01 07:45:24;;;;;;;26.00;13.48;;;;;;;20.20;41.52;102928.16;5027317;28;20517;-61
2022/12/01 07:47:53;;;;;;;22.83;12.68;;;;;;;20.29;41.40;102936.28;5028046;28;20075;-61
2022/12/01 07:50:18;;;;;;;22.45;13.38;;;;;;;20.14;41.49;102930.50;5030319;28;21034;-61
2022/12/01 07:52:44;;;;;;;23.70;12.70;;;;;;;20.20;41.38;102930.81;5025285;28;20176;-61
2022/12/01 07:55:09;;;;;;;24.88;12.40;;;;;;;20.22;41.58;102942.09;5027828;28;20038;-61
2022/12/01 07:57:35;;;;;;;21.77;11.43;;;;;;;20.23;41.44;102940.28;5027152;28;20037;-61
2022/12/01 08:00:00;;;;;;;24.75;12.23;;;;;;;20.31;41.21;102940.50;5029726;28;20041;-61
2022/12/01 08:02:26;;;;;;;24.88;12.65;;;;;;;20.26;41.26;102945.31;5030998;28;20111;-61
2022/12/01 08:04:51;;;;;;;23.70;11.95;;;;;;;20.23;41.34;102937.66;5031722;28;20053;-60
2022/12/01 08:07:17;;;;;;;21.38;12.13;;;;;;;20.21;41.54;102942.22;5030444;28;20037;-60
2022/12/01 08:09:43;;;;;;;22.10;12.65;;;;;;;20.17;41.55;102944.31;5028421;28;20080;-61
2022/12/01 08:12:09;;;;;;;24.02;12.52;;;;;;;20.24;41.41;102944.63;5028880;28;20041;-60
2022/12/01 08:14:34;;;;;;;23.30;12.55;;;;;;;20.27;41.27;102951.44;5022982;28;20049;-60
2022/12/01 08:17:00;;;;;;;25.25;13.23;;;;;;;20.19;41.42;102958.25;5035272;28;20048;-60
2022/12/01 08:19:28;;;;;;;23.55;12.10;;;;;;;20.23;41.50;102948.22;5034748;28;20036;-60
2022/12/01 08:21:53;;;;;;;22.40;12.05;;;;;;;20.28;41.31;102951.31;5034588;28;20041;-60
2022/12/01 08:24:19;;;;;;;25.98;12.93;;;;;;;20.28;41.29;102953.13;5039215;28;20558;-60
2022/12/01 08:26:44;;;;;;;24.20;13.23;;;;;;;20.21;41.27;102956.28;5039370;28;21164;-60
2022/12/01 08:29:10;;;;;;;23.40;13.40;;;;;;;20.13;41.50;102950.84;5035751;28;20364;-60
2022/12/01 08:31:36;;;;;;;21.33;12.68;;;;;;;20.24;41.34;102960.47;5029916;28;20036;-60
2022/12/01 08:34:06;;;;;;;23.38;12.10;;;;;;;20.26;41.21;102958.53;5028846;28;20051;-60
2022/12/01 08:36:32;;;;;;;24.17;12.70;;;;;;;20.25;41.30;102966.59;5029333;28;20042;-60
2022/12/01 08:38:59;;;;;;;22.65;11.68;;;;;;;20.23;41.44;102957.00;5024982;28;20064;-60
2022/12/01 08:41:24;;;;;;;21.98;12.70;;;;;;;20.24;41.17;102965.78;5029671;28;20052;-60
2022/12/01 08:43:51;;;;;;;22.48;12.05;;;;;;;20.20;41.41;102959.91;5028300;28;20053;-60
2022/12/01 08:46:17;;;;;;;21.83;12.55;;;;;;;20.29;41.21;102960.09;5032404;28;20597;-60
2022/12/01 08:48:42;;;;;;;20.77;12.38;;;;;;;20.21;41.22;102950.16;5049342;28;20037;-60
2022/12/01 08:51:13;;;;;;;20.60;12.05;;;;;;;20.19;41.33;102958.25;5031560;28;20044;-60
2022/12/01 08:53:42;;;;;;;21.50;11.90;;;;;;;20.18;41.38;102958.38;5036466;28;20681;-61
2022/12/01 08:56:14;;;;;;;23.00;12.25;;;;;;;20.18;41.40;102963.66;5034740;28;20033;-60
2022/12/01 08:58:40;;;;;;;23.63;11.75;;;;;;;20.19;41.54;102963.53;5027586;28;20028;-61
2022/12/01 09:01:09;;;;;;;23.75;12.82;;;;;;;20.20;41.27;102956.44;5033506;28;20736;-61
2022/12/01 09:03:36;;;;;;;23.48;12.85;;;;;;;20.15;41.36;102970.06;5027452;28;20889;-60
2022/12/01 09:06:08;;;;;;;22.70;12.98;;;;;;;20.16;41.38;102957.66;5029407;28;20056;-60
2022/12/01 09:08:34;;;;;;;21.25;11.98;;;;;;;20.24;41.20;102965.78;5032834;28;20037;-61
2022/12/01 09:11:05;;;;;;;20.58;12.00;;;;;;;20.15;41.40;102962.13;5031660;28;20056;-60
2022/12/01 09:13:33;;;;;;;21.52;12.18;;;;;;;20.15;41.38;102963.94;5031052;28;20065;-61
2022/12/01 09:16:07;;;;;;;22.35;11.82;;;;;;;20.11;41.39;102963.34;5028992;28;20051;-61
2022/12/01 09:18:33;;;;;;;20.38;11.25;;;;;;;20.10;41.44;102958.16;5031182;28;20159;-60
2022/12/01 09:20:59;;;;;;;23.88;12.00;;;;;;;20.16;41.23;102960.31;5027842;28;20481;-61
2022/12/01 09:23:25;;;;;;;22.13;11.68;;;;;;;20.19;41.14;102965.34;5029722;28;20430;-60
2022/12/01 09:25:51;;;;;;;24.23;12.15;;;;;;;20.16;41.10;102968.25;5028349;28;20144;-61
2022/12/01 09:28:18;;;;;;;22.73;11.75;;;;;;;20.13;41.23;102956.13;5034025;28;20037;-60
2022/12/01 09:30:45;;;;;;;21.52;12.98;;;;;;;20.10;41.34;102956.34;5032767;28;20519;-63
2022/12/01 09:33:12;;;;;;;22.92;12.63;;;;;;;20.12;41.39;102961.53;5029837;28;20036;-60
2022/12/01 09:35:38;;;;;;;22.88;11.80;;;;;;;20.09;41.29;102957.34;5029207;28;20119;-60
2022/12/01 09:38:04;;;;;;;22.38;11.50;;;;;;;20.09;41.21;102951.19;5028346;28;20114;-61
2022/12/01 09:40:37;;;;;;;22.58;12.15;;;;;;;20.13;41.39;102950.84;5028887;28;20055;-61
2022/12/01 09:43:10;;;;;;;22.85;12.82;;;;;;;20.11;41.31;102955.41;5031019;28;20060;-61
2022/12/01 09:45:41;;;;;;;23.58;12.77;;;;;;;20.18;41.22;102961.84;5031949;28;20077;-61
2022/12/01 09:48:20;;;;;;;23.02;12.50;;;;;;;20.09;41.44;102953.84;5034215;28;20082;-61
2022/12/01 09:50:46;;;;;;;22.03;12.37;;;;;;;20.14;41.22;102957.81;5028306;28;20044;-61
2022/12/01 09:53:19;;;;;;;21.48;10.93;;;;;;;20.14;41.22;102955.16;5030163;28;20060;-61
2022/12/01 09:55:45;;;;;;;23.85;11.48;;;;;;;20.12;41.47;102962.38;5034104;28;20033;-61
2022/12/01 09:58:18;;;;;;;22.80;12.02;;;;;;;20.14;41.37;102952.50;5033378;28;20040;-61
2022/12/01 10:00:45;;;;;;;22.48;12.18;;;;;;;20.15;41.32;102948.91;5034620;28;20934;-61
2022/12/01 10:03:32;;;;;;;21.77;11.40;;;;;;;20.12;41.41;102958.91;5034645;28;20480;-60
2022/12/01 10:06:10;;;;;;;20.45;11.95;;;;;;;20.07;41.28;102953.97;5028182;28;20127;-60
2022/12/01 10:08:40;;;;;;;20.83;11.52;;;;;;;20.10;41.34;102958.16;5040239;28;20136;-60
2022/12/01 10:11:19;;;;;;;22.30;12.43;;;;;;;20.12;41.29;102956.25;5021521;28;20037;-60
2022/12/01 10:13:44;;;;;;;21.38;12.43;;;;;;;20.08;41.37;102950.38;5027222;28;21497;-60
2022/12/01 10:16:14;;;;;;;19.45;12.18;;;;;;;20.07;41.46;102946.03;5027864;28;20036;-62
2022/12/01 10:18:58;;;;;;;21.42;12.35;;;;;;;20.05;41.42;102953.28;5023377;28;20067;-61
2022/12/01 10:21:57;;;;;;;22.42;12.38;;;;;;;20.13;41.48;102944.72;5028440;28;20120;-61
2022/12/01 10:24:23;;;;;;;22.92;12.73;;;;;;;20.09;41.40;102949.41;5029476;28;20052;-60
2022/12/01 10:27:00;;;;;;;19.50;11.38;;;;;;;20.12;41.33;102935.94;5032743;28;20037;-61
2022/12/01 10:29:51;;;;;;;20.42;11.02;;;;;;;20.01;41.52;102928.06;5031520;28;20425;-61
2022/12/01 10:32:22;;;;;;;19.60;11.05;;;;;;;20.11;41.34;102941.34;5030253;28;20037;-61
2022/12/01 10:34:48;;;;;;;22.30;11.30;;;;;;;20.12;41.19;102937.75;5033250;28;20037;-61
2022/12/01 10:37:21;;;;;;;19.60;11.57;;;;;;;20.00;41.46;102936.13;5031709;28;20048;-61
2022/12/01 10:39:49;;;;;;;18.88;10.60;;;;;;;20.07;41.36;102938.09;5036696;28;20395;-60
2022/12/01 10:42:17;;;;;;;19.08;10.80;;;;;;;20.08;41.33;102929.22;5041152;28;20846;-61
2022/12/01 10:44:44;;;;;;;19.70;11.38;;;;;;;20.00;41.34;102926.38;5031790;28;20032;-61
2022/12/01 10:47:21;;;;;;;20.88;11.50;;;;;;;20.06;41.28;102944.38;5035412;28;20049;-60
2022/12/01 10:49:47;;;;;;;19.15;11.25;;;;;;;19.99;41.47;102937.94;5038558;28;20116;-61
2022/12/01 10:52:39;;;;;;;21.55;12.05;;;;;;;20.03;41.35;102941.16;5030514;28;20068;-60
2022/12/01 10:55:26;;;;;;;20.60;12.85;;;;;;;20.09;41.29;102938.81;5029033;28;20038;-61
2022/12/01 10:57:58;;;;;;;20.00;12.05;;;;;;;20.06;41.33;102938.25;5032353;28;20037;-61
2022/12/01 11:00:28;;;;;;;18.23;10.00;;;;;;;20.07;41.34;102938.09;5038358;28;20044;-60
2022/12/01 11:02:53;;;;;;;20.02;10.68;;;;;;;20.05;41.51;102933.94;5027899;28;20065;-60
2022/12/01 11:05:33;;;;;;;19.30;11.02;;;;;;;19.97;41.61;102933.75;5034796;28;20056;-61
2022/12/01 11:07:58;;;;;;;21.88;11.32;;;;;;;20.08;41.25;102936.31;5033367;28;20032;-61
2022/12/01 11:10:36;;;;;;;19.00;11.25;;;;;;;20.03;41.49;102933.22;5034657;28;20037;-61
2022/12/01 11:13:12;;;;;;;18.67;11.43;;;;;;;20.00;41.50;102926.38;5033718;28;20434;-61
2022/12/01 11:15:40;;;;;;;21.00;12.30;;;;;;;20.08;41.27;102929.22;5029500;28;20037;-61
2022/12/01 11:18:27;;;;;;;17.65;10.48;;;;;;;20.06;41.42;102923.22;5037111;28;20048;-60
2022/12/01 11:21:10;;;;;;;17.52;10.27;;;;;;;20.06;41.38;102920.56;5030786;28;21491;-61
2022/12/01 11:23:48;;;;;;;18.60;11.45;;;;;;;20.02;41.57;102911.22;5033631;28;20039;-61